sensor_id;sensor_type;location;lat;lon;timestamp;P1;durP1;ratioP1;P2;durP2;ratioP2
78453;SDS011;67750;55.832;49.124;2023-08-30T00:01:59;4.05;;;1.90;;
78453;SDS011;67750;55.832;49.124;2023-08-30T00:04:29;3.62;;;2.02;;
78453;SDS011;67750;55.832;49.124;2023-08-30T00:06:58;3.33;;;1.55;;
78453;SDS011;67750;55.832;49.124;2023-08-30T00:09:28;3.90;;;1.70;;
78453;SDS011;67750;55.832;49.124;2023-08-30T00:11:57;3.52;;;1.62;;
78453;SDS011;67750;55.832;49.124;2023-08-30T00:14:27;3.40;;;1.60;;
78453;SDS011;67750;55.832;49.124;2023-08-30T00:16:57;4.62;;;2.00;;
78453;SDS011;67750;55.832;49.124;2023-08-30T00:19:26;3.35;;;1.80;;
78453;SDS011;67750;55.832;49.124;2023-08-30T00:21:56;4.28;;;2.15;;
78453;SDS011;67750;55.832;49.124;2023-08-30T00:24:25;5.87;;;1.82;;
78453;SDS011;67750;55.832;49.124;2023-08-30T00:26:55;3.65;;;1.80;;
78453;SDS011;67750;55.832;49.124;2023-08-30T00:29:24;3.65;;;1.80;;
78453;SDS011;67750;55.832;49.124;2023-08-30T00:31:54;3.65;;;1.60;;
78453;SDS011;67750;55.832;49.124;2023-08-30T00:34:24;5.20;;;2.12;;
78453;SDS011;67750;55.832;49.124;2023-08-30T00:36:53;4.45;;;1.92;;
78453;SDS011;67750;55.832;49.124;2023-08-30T00:39:23;2.72;;;1.60;;
78453;SDS011;67750;55.832;49.124;2023-08-30T00:41:52;4.03;;;1.50;;
78453;SDS011;67750;55.832;49.124;2023-08-30T00:44:23;3.77;;;1.42;;
78453;SDS011;67750;55.832;49.124;2023-08-30T00:46:52;3.08;;;1.60;;
78453;SDS011;67750;55.832;49.124;2023-08-30T00:49:22;3.08;;;1.35;;
78453;SDS011;67750;55.832;49.124;2023-08-30T00:51:51;3.17;;;1.67;;
78453;SDS011;67750;55.832;49.124;2023-08-30T00:54:21;2.85;;;1.50;;
78453;SDS011;67750;55.832;49.124;2023-08-30T00:56:50;2.95;;;1.52;;
78453;SDS011;67750;55.832;49.124;2023-08-30T00:59:19;4.75;;;1.42;;
78453;SDS011;67750;55.832;49.124;2023-08-30T01:01:49;2.60;;;1.45;;
78453;SDS011;67750;55.832;49.124;2023-08-30T01:04:20;3.35;;;1.52;;
78453;SDS011;67750;55.832;49.124;2023-08-30T01:06:50;2.70;;;1.50;;
78453;SDS011;67750;55.832;49.124;2023-08-30T01:09:19;3.00;;;1.50;;
78453;SDS011;67750;55.832;49.124;2023-08-30T01:17:28;2.50;;;1.45;;
78453;SDS011;67750;55.832;49.124;2023-08-30T01:20:00;4.47;;;1.60;;
78453;SDS011;67750;55.832;49.124;2023-08-30T01:28:30;3.60;;;1.32;;
78453;SDS011;67750;55.832;49.124;2023-08-30T01:31:00;3.22;;;1.45;;
78453;SDS011;67750;55.832;49.124;2023-08-30T01:33:32;3.08;;;1.30;;
78453;SDS011;67750;55.832;49.124;2023-08-30T01:36:03;3.80;;;1.60;;
78453;SDS011;67750;55.832;49.124;2023-08-30T01:38:33;3.08;;;1.52;;
78453;SDS011;67750;55.832;49.124;2023-08-30T01:41:04;3.20;;;1.52;;
78453;SDS011;67750;55.832;49.124;2023-08-30T01:43:33;2.85;;;1.42;;
78453;SDS011;67750;55.832;49.124;2023-08-30T01:46:05;7.65;;;2.25;;
78453;SDS011;67750;55.832;49.124;2023-08-30T01:48:36;5.53;;;1.60;;
78453;SDS011;67750;55.832;49.124;2023-08-30T01:51:06;2.55;;;1.20;;
78453;SDS011;67750;55.832;49.124;2023-08-30T01:53:36;3.55;;;1.50;;
78453;SDS011;67750;55.832;49.124;2023-08-30T01:56:05;2.52;;;1.62;;
78453;SDS011;67750;55.832;49.124;2023-08-30T01:58:35;3.98;;;1.65;;
78453;SDS011;67750;55.832;49.124;2023-08-30T02:01:04;3.12;;;1.57;;
78453;SDS011;67750;55.832;49.124;2023-08-30T02:03:35;4.10;;;1.57;;
78453;SDS011;67750;55.832;49.124;2023-08-30T02:08:55;4.30;;;1.50;;
78453;SDS011;67750;55.832;49.124;2023-08-30T02:11:26;2.80;;;1.30;;
78453;SDS011;67750;55.832;49.124;2023-08-30T02:13:57;3.33;;;1.50;;
78453;SDS011;67750;55.832;49.124;2023-08-30T02:16:28;3.00;;;1.50;;
78453;SDS011;67750;55.832;49.124;2023-08-30T02:18:59;3.10;;;1.72;;
78453;SDS011;67750;55.832;49.124;2023-08-30T02:21:28;5.75;;;1.67;;
78453;SDS011;67750;55.832;49.124;2023-08-30T02:23:58;5.00;;;1.52;;
78453;SDS011;67750;55.832;49.124;2023-08-30T02:26:29;5.17;;;2.00;;
78453;SDS011;67750;55.832;49.124;2023-08-30T02:28:59;4.78;;;1.50;;
78453;SDS011;67750;55.832;49.124;2023-08-30T02:31:29;3.55;;;1.42;;
78453;SDS011;67750;55.832;49.124;2023-08-30T02:33:58;4.17;;;1.75;;
78453;SDS011;67750;55.832;49.124;2023-08-30T02:36:30;5.33;;;1.60;;
78453;SDS011;67750;55.832;49.124;2023-08-30T02:39:00;3.60;;;1.60;;
78453;SDS011;67750;55.832;49.124;2023-08-30T02:41:31;5.00;;;1.62;;
78453;SDS011;67750;55.832;49.124;2023-08-30T02:44:01;4.15;;;1.75;;
78453;SDS011;67750;55.832;49.124;2023-08-30T02:46:30;2.90;;;1.45;;
78453;SDS011;67750;55.832;49.124;2023-08-30T02:49:00;3.08;;;1.70;;
78453;SDS011;67750;55.832;49.124;2023-08-30T02:51:31;5.25;;;1.62;;
78453;SDS011;67750;55.832;49.124;2023-08-30T02:54:01;3.10;;;1.50;;
78453;SDS011;67750;55.832;49.124;2023-08-30T02:56:31;4.80;;;1.67;;
78453;SDS011;67750;55.832;49.124;2023-08-30T02:59:01;5.20;;;1.92;;
78453;SDS011;67750;55.832;49.124;2023-08-30T03:01:32;3.37;;;1.50;;
78453;SDS011;67750;55.832;49.124;2023-08-30T03:04:01;3.47;;;1.52;;
78453;SDS011;67750;55.832;49.124;2023-08-30T03:06:32;3.90;;;1.40;;
78453;SDS011;67750;55.832;49.124;2023-08-30T03:14:01;5.53;;;1.80;;
78453;SDS011;67750;55.832;49.124;2023-08-30T03:16:31;3.05;;;1.70;;
78453;SDS011;67750;55.832;49.124;2023-08-30T03:19:02;3.72;;;1.70;;
78453;SDS011;67750;55.832;49.124;2023-08-30T03:21:31;5.42;;;1.62;;
78453;SDS011;67750;55.832;49.124;2023-08-30T03:24:01;5.87;;;1.50;;
78453;SDS011;67750;55.832;49.124;2023-08-30T03:26:31;3.80;;;1.72;;
78453;SDS011;67750;55.832;49.124;2023-08-30T03:29:20;5.75;;;2.05;;
78453;SDS011;67750;55.832;49.124;2023-08-30T03:31:49;3.10;;;1.52;;
78453;SDS011;67750;55.832;49.124;2023-08-30T03:34:19;4.87;;;1.45;;
78453;SDS011;67750;55.832;49.124;2023-08-30T03:36:48;3.25;;;1.40;;
78453;SDS011;67750;55.832;49.124;2023-08-30T03:39:20;3.45;;;1.80;;
78453;SDS011;67750;55.832;49.124;2023-08-30T03:41:50;3.35;;;1.67;;
78453;SDS011;67750;55.832;49.124;2023-08-30T03:44:20;7.40;;;2.35;;
78453;SDS011;67750;55.832;49.124;2023-08-30T03:46:49;2.98;;;1.70;;
78453;SDS011;67750;55.832;49.124;2023-08-30T03:49:19;9.43;;;2.12;;
78453;SDS011;67750;55.832;49.124;2023-08-30T03:51:49;5.28;;;2.25;;
78453;SDS011;67750;55.832;49.124;2023-08-30T03:54:19;10.28;;;2.00;;
78453;SDS011;67750;55.832;49.124;2023-08-30T03:56:48;4.72;;;2.10;;
78453;SDS011;67750;55.832;49.124;2023-08-30T03:59:17;4.67;;;1.70;;
78453;SDS011;67750;55.832;49.124;2023-08-30T04:01:48;3.83;;;1.50;;
78453;SDS011;67750;55.832;49.124;2023-08-30T04:04:19;5.85;;;3.10;;
78453;SDS011;67750;55.832;49.124;2023-08-30T04:06:48;6.55;;;1.98;;
78453;SDS011;67750;55.832;49.124;2023-08-30T04:09:18;4.35;;;1.80;;
78453;SDS011;67750;55.832;49.124;2023-08-30T04:11:48;5.92;;;2.08;;
78453;SDS011;67750;55.832;49.124;2023-08-30T04:14:18;5.08;;;1.98;;
78453;SDS011;67750;55.832;49.124;2023-08-30T04:17:07;4.33;;;1.80;;
78453;SDS011;67750;55.832;49.124;2023-08-30T04:19:36;3.25;;;1.90;;
78453;SDS011;67750;55.832;49.124;2023-08-30T04:24:36;8.00;;;1.95;;
78453;SDS011;67750;55.832;49.124;2023-08-30T04:27:05;4.62;;;2.25;;
78453;SDS011;67750;55.832;49.124;2023-08-30T04:29:35;4.42;;;2.10;;
78453;SDS011;67750;55.832;49.124;2023-08-30T04:32:35;6.20;;;3.00;;
78453;SDS011;67750;55.832;49.124;2023-08-30T04:34:38;7.03;;;2.98;;
78453;SDS011;67750;55.832;49.124;2023-08-30T04:37:07;8.30;;;3.47;;
78453;SDS011;67750;55.832;49.124;2023-08-30T04:39:37;12.20;;;6.03;;
78453;SDS011;67750;55.832;49.124;2023-08-30T04:42:06;17.48;;;7.65;;
78453;SDS011;67750;55.832;49.124;2023-08-30T04:44:36;18.60;;;8.23;;
78453;SDS011;67750;55.832;49.124;2023-08-30T04:47:07;18.12;;;7.30;;
78453;SDS011;67750;55.832;49.124;2023-08-30T04:49:37;17.40;;;7.08;;
78453;SDS011;67750;55.832;49.124;2023-08-30T04:52:06;10.70;;;4.62;;
78453;SDS011;67750;55.832;49.124;2023-08-30T04:54:39;9.00;;;4.45;;
78453;SDS011;67750;55.832;49.124;2023-08-30T04:57:09;14.65;;;4.55;;
78453;SDS011;67750;55.832;49.124;2023-08-30T04:59:41;7.28;;;2.98;;
78453;SDS011;67750;55.832;49.124;2023-08-30T05:02:11;5.50;;;2.62;;
78453;SDS011;67750;55.832;49.124;2023-08-30T05:05:00;4.95;;;2.45;;
78453;SDS011;67750;55.832;49.124;2023-08-30T05:07:32;5.58;;;2.12;;
78453;SDS011;67750;55.832;49.124;2023-08-30T05:10:02;4.58;;;2.30;;
78453;SDS011;67750;55.832;49.124;2023-08-30T05:12:33;7.47;;;2.02;;
78453;SDS011;67750;55.832;49.124;2023-08-30T05:15:03;3.37;;;1.70;;
78453;SDS011;67750;55.832;49.124;2023-08-30T05:17:36;7.05;;;2.08;;
78453;SDS011;67750;55.832;49.124;2023-08-30T05:20:05;5.33;;;1.70;;
78453;SDS011;67750;55.832;49.124;2023-08-30T05:22:35;5.00;;;1.90;;
78453;SDS011;67750;55.832;49.124;2023-08-30T05:25:05;3.55;;;1.85;;
78453;SDS011;67750;55.832;49.124;2023-08-30T05:27:34;4.65;;;2.05;;
78453;SDS011;67750;55.832;49.124;2023-08-30T05:30:04;3.85;;;1.65;;
78453;SDS011;67750;55.832;49.124;2023-08-30T05:32:34;5.95;;;1.82;;
78453;SDS011;67750;55.832;49.124;2023-08-30T05:37:57;3.95;;;2.12;;
78453;SDS011;67750;55.832;49.124;2023-08-30T05:40:46;4.28;;;1.92;;
78453;SDS011;67750;55.832;49.124;2023-08-30T05:43:16;3.83;;;2.17;;
78453;SDS011;67750;55.832;49.124;2023-08-30T05:45:47;4.67;;;2.25;;
78453;SDS011;67750;55.832;49.124;2023-08-30T05:48:16;5.87;;;2.30;;
78453;SDS011;67750;55.832;49.124;2023-08-30T05:50:46;6.58;;;2.30;;
78453;SDS011;67750;55.832;49.124;2023-08-30T05:53:16;5.47;;;2.30;;
78453;SDS011;67750;55.832;49.124;2023-08-30T05:55:45;3.62;;;1.70;;
78453;SDS011;67750;55.832;49.124;2023-08-30T05:58:15;3.83;;;1.75;;
78453;SDS011;67750;55.832;49.124;2023-08-30T06:00:45;3.98;;;2.17;;
78453;SDS011;67750;55.832;49.124;2023-08-30T06:03:14;3.20;;;1.72;;
78453;SDS011;67750;55.832;49.124;2023-08-30T06:05:44;3.62;;;1.80;;
78453;SDS011;67750;55.832;49.124;2023-08-30T06:08:15;8.60;;;2.08;;
78453;SDS011;67750;55.832;49.124;2023-08-30T06:10:45;2.80;;;1.60;;
78453;SDS011;67750;55.832;49.124;2023-08-30T06:13:17;3.08;;;1.55;;
78453;SDS011;67750;55.832;49.124;2023-08-30T06:18:40;3.22;;;1.70;;
78453;SDS011;67750;55.832;49.124;2023-08-30T06:21:10;3.35;;;1.65;;
78453;SDS011;67750;55.832;49.124;2023-08-30T06:23:39;2.37;;;1.60;;
78453;SDS011;67750;55.832;49.124;2023-08-30T06:26:10;5.55;;;2.10;;
78453;SDS011;67750;55.832;49.124;2023-08-30T06:28:39;3.77;;;1.67;;
78453;SDS011;67750;55.832;49.124;2023-08-30T06:31:10;3.47;;;1.70;;
78453;SDS011;67750;55.832;49.124;2023-08-30T06:33:39;4.58;;;2.12;;
78453;SDS011;67750;55.832;49.124;2023-08-30T06:36:09;3.95;;;1.98;;
78453;SDS011;67750;55.832;49.124;2023-08-30T06:38:38;4.28;;;2.00;;
78453;SDS011;67750;55.832;49.124;2023-08-30T06:41:08;4.00;;;1.67;;
78453;SDS011;67750;55.832;49.124;2023-08-30T06:43:37;3.72;;;1.77;;
78453;SDS011;67750;55.832;49.124;2023-08-30T06:46:07;4.47;;;1.67;;
78453;SDS011;67750;55.832;49.124;2023-08-30T06:48:36;4.20;;;1.60;;
78453;SDS011;67750;55.832;49.124;2023-08-30T06:51:06;4.55;;;2.08;;
78453;SDS011;67750;55.832;49.124;2023-08-30T06:53:35;5.08;;;1.80;;
78453;SDS011;67750;55.832;49.124;2023-08-30T06:56:05;5.00;;;1.85;;
78453;SDS011;67750;55.832;49.124;2023-08-30T06:58:35;3.08;;;1.60;;
78453;SDS011;67750;55.832;49.124;2023-08-30T07:01:05;3.10;;;1.80;;
78453;SDS011;67750;55.832;49.124;2023-08-30T07:03:34;3.70;;;1.70;;
78453;SDS011;67750;55.832;49.124;2023-08-30T07:06:03;3.17;;;1.70;;
78453;SDS011;67750;55.832;49.124;2023-08-30T07:08:33;6.12;;;1.50;;
78453;SDS011;67750;55.832;49.124;2023-08-30T07:11:02;3.67;;;1.62;;
78453;SDS011;67750;55.832;49.124;2023-08-30T07:13:32;3.33;;;1.67;;
78453;SDS011;67750;55.832;49.124;2023-08-30T07:16:01;4.62;;;1.77;;
78453;SDS011;67750;55.832;49.124;2023-08-30T07:18:31;2.70;;;1.42;;
78453;SDS011;67750;55.832;49.124;2023-08-30T07:21:00;2.95;;;1.75;;
78453;SDS011;67750;55.832;49.124;2023-08-30T07:23:30;3.98;;;1.75;;
78453;SDS011;67750;55.832;49.124;2023-08-30T07:25:59;3.35;;;1.40;;
78453;SDS011;67750;55.832;49.124;2023-08-30T07:28:29;4.28;;;1.67;;
78453;SDS011;67750;55.832;49.124;2023-08-30T07:33:48;3.02;;;1.52;;
78453;SDS011;67750;55.832;49.124;2023-08-30T07:36:17;2.50;;;1.50;;
78453;SDS011;67750;55.832;49.124;2023-08-30T07:38:48;3.40;;;1.45;;
78453;SDS011;67750;55.832;49.124;2023-08-30T07:41:17;3.10;;;1.75;;
78453;SDS011;67750;55.832;49.124;2023-08-30T07:43:47;3.50;;;1.77;;
78453;SDS011;67750;55.832;49.124;2023-08-30T07:46:16;3.08;;;1.52;;
78453;SDS011;67750;55.832;49.124;2023-08-30T07:48:46;4.40;;;1.62;;
78453;SDS011;67750;55.832;49.124;2023-08-30T07:51:15;3.47;;;1.45;;
78453;SDS011;67750;55.832;49.124;2023-08-30T07:53:45;6.58;;;1.57;;
78453;SDS011;67750;55.832;49.124;2023-08-30T07:56:14;2.58;;;1.50;;
78453;SDS011;67750;55.832;49.124;2023-08-30T07:58:44;2.67;;;1.50;;
78453;SDS011;67750;55.832;49.124;2023-08-30T08:01:47;3.25;;;1.42;;
78453;SDS011;67750;55.832;49.124;2023-08-30T08:04:05;2.72;;;1.47;;
78453;SDS011;67750;55.832;49.124;2023-08-30T08:06:35;2.83;;;1.75;;
78453;SDS011;67750;55.832;49.124;2023-08-30T08:09:04;2.83;;;1.20;;
78453;SDS011;67750;55.832;49.124;2023-08-30T08:11:34;2.85;;;1.42;;
78453;SDS011;67750;55.832;49.124;2023-08-30T08:14:04;4.22;;;1.27;;
78453;SDS011;67750;55.832;49.124;2023-08-30T08:16:33;3.75;;;1.77;;
78453;SDS011;67750;55.832;49.124;2023-08-30T08:19:03;3.67;;;1.50;;
78453;SDS011;67750;55.832;49.124;2023-08-30T08:21:34;3.37;;;1.75;;
78453;SDS011;67750;55.832;49.124;2023-08-30T08:24:04;3.47;;;1.52;;
78453;SDS011;67750;55.832;49.124;2023-08-30T08:26:33;3.47;;;1.40;;
78453;SDS011;67750;55.832;49.124;2023-08-30T08:29:03;2.90;;;1.60;;
78453;SDS011;67750;55.832;49.124;2023-08-30T08:31:32;2.83;;;1.37;;
78453;SDS011;67750;55.832;49.124;2023-08-30T08:36:51;2.55;;;1.30;;
78453;SDS011;67750;55.832;49.124;2023-08-30T08:39:21;2.72;;;1.45;;
78453;SDS011;67750;55.832;49.124;2023-08-30T08:41:51;2.47;;;1.37;;
78453;SDS011;67750;55.832;49.124;2023-08-30T08:44:21;3.12;;;1.50;;
78453;SDS011;67750;55.832;49.124;2023-08-30T08:46:52;2.35;;;1.52;;
78453;SDS011;67750;55.832;49.124;2023-08-30T08:49:22;3.17;;;1.50;;
78453;SDS011;67750;55.832;49.124;2023-08-30T08:51:53;4.15;;;1.65;;
78453;SDS011;67750;55.832;49.124;2023-08-30T08:54:23;3.25;;;1.40;;
78453;SDS011;67750;55.832;49.124;2023-08-30T08:56:52;4.45;;;1.87;;
78453;SDS011;67750;55.832;49.124;2023-08-30T08:59:22;2.22;;;1.30;;
78453;SDS011;67750;55.832;49.124;2023-08-30T09:01:53;2.85;;;1.65;;
78453;SDS011;67750;55.832;49.124;2023-08-30T09:04:23;3.12;;;1.30;;
78453;SDS011;67750;55.832;49.124;2023-08-30T09:06:53;2.05;;;1.27;;
78453;SDS011;67750;55.832;49.124;2023-08-30T09:09:23;4.45;;;1.42;;
78453;SDS011;67750;55.832;49.124;2023-08-30T09:11:53;2.98;;;1.65;;
78453;SDS011;67750;55.832;49.124;2023-08-30T09:14:22;4.08;;;1.47;;
78453;SDS011;67750;55.832;49.124;2023-08-30T09:19:41;4.47;;;1.62;;
78453;SDS011;67750;55.832;49.124;2023-08-30T09:22:11;4.20;;;1.50;;
78453;SDS011;67750;55.832;49.124;2023-08-30T09:24:41;5.60;;;1.87;;
78453;SDS011;67750;55.832;49.124;2023-08-30T09:27:11;5.95;;;1.60;;
78453;SDS011;67750;55.832;49.124;2023-08-30T09:29:42;3.87;;;1.70;;
78453;SDS011;67750;55.832;49.124;2023-08-30T09:40:00;3.92;;;1.80;;
78453;SDS011;67750;55.832;49.124;2023-08-30T09:42:31;3.67;;;1.70;;
78453;SDS011;67750;55.832;49.124;2023-08-30T09:45:01;5.62;;;2.67;;
78453;SDS011;67750;55.832;49.124;2023-08-30T09:47:33;2.62;;;1.47;;
78453;SDS011;67750;55.832;49.124;2023-08-30T09:50:02;2.92;;;1.57;;
78453;SDS011;67750;55.832;49.124;2023-08-30T09:52:34;2.35;;;1.30;;
78453;SDS011;67750;55.832;49.124;2023-08-30T09:57:34;4.12;;;1.52;;
78453;SDS011;67750;55.832;49.124;2023-08-30T10:00:03;3.12;;;1.70;;
78453;SDS011;67750;55.832;49.124;2023-08-30T10:02:33;2.50;;;1.37;;
78453;SDS011;67750;55.832;49.124;2023-08-30T10:05:02;2.47;;;1.40;;
78453;SDS011;67750;55.832;49.124;2023-08-30T10:07:32;4.03;;;1.60;;
78453;SDS011;67750;55.832;49.124;2023-08-30T10:10:03;2.12;;;1.12;;
78453;SDS011;67750;55.832;49.124;2023-08-30T10:12:33;3.02;;;1.62;;
78453;SDS011;67750;55.832;49.124;2023-08-30T10:15:03;2.98;;;1.82;;
78453;SDS011;67750;55.832;49.124;2023-08-30T10:17:34;2.42;;;1.50;;
78453;SDS011;67750;55.832;49.124;2023-08-30T10:25:24;2.90;;;1.50;;
78453;SDS011;67750;55.832;49.124;2023-08-30T10:27:54;3.17;;;1.40;;
78453;SDS011;67750;55.832;49.124;2023-08-30T10:30:24;2.45;;;1.20;;
78453;SDS011;67750;55.832;49.124;2023-08-30T10:32:54;3.75;;;1.42;;
78453;SDS011;67750;55.832;49.124;2023-08-30T10:35:25;2.98;;;1.47;;
78453;SDS011;67750;55.832;49.124;2023-08-30T10:37:55;2.62;;;1.15;;
78453;SDS011;67750;55.832;49.124;2023-08-30T10:40:25;3.55;;;1.27;;
78453;SDS011;67750;55.832;49.124;2023-08-30T10:45:44;5.45;;;1.42;;
78453;SDS011;67750;55.832;49.124;2023-08-30T10:48:13;3.35;;;1.45;;
78453;SDS011;67750;55.832;49.124;2023-08-30T10:50:44;2.77;;;1.10;;
78453;SDS011;67750;55.832;49.124;2023-08-30T10:53:13;2.17;;;1.25;;
78453;SDS011;67750;55.832;49.124;2023-08-30T10:56:02;4.53;;;1.10;;
78453;SDS011;67750;55.832;49.124;2023-08-30T10:58:14;2.98;;;1.07;;
78453;SDS011;67750;55.832;49.124;2023-08-30T11:00:43;1.85;;;1.00;;
78453;SDS011;67750;55.832;49.124;2023-08-30T11:03:13;7.55;;;1.30;;
78453;SDS011;67750;55.832;49.124;2023-08-30T11:05:43;1.90;;;1.10;;
78453;SDS011;67750;55.832;49.124;2023-08-30T11:08:12;4.47;;;1.50;;
78453;SDS011;67750;55.832;49.124;2023-08-30T11:10:42;3.05;;;1.25;;
78453;SDS011;67750;55.832;49.124;2023-08-30T11:13:14;2.20;;;0.90;;
78453;SDS011;67750;55.832;49.124;2023-08-30T11:15:44;2.37;;;1.10;;
78453;SDS011;67750;55.832;49.124;2023-08-30T11:18:13;3.50;;;1.30;;
78453;SDS011;67750;55.832;49.124;2023-08-30T11:20:44;2.27;;;1.35;;
78453;SDS011;67750;55.832;49.124;2023-08-30T11:23:14;2.70;;;1.20;;
78453;SDS011;67750;55.832;49.124;2023-08-30T11:25:49;5.53;;;1.05;;
78453;SDS011;67750;55.832;49.124;2023-08-30T11:28:21;2.90;;;0.93;;
78453;SDS011;67750;55.832;49.124;2023-08-30T11:30:46;3.15;;;1.32;;
78453;SDS011;67750;55.832;49.124;2023-08-30T11:36:05;7.22;;;1.20;;
78453;SDS011;67750;55.832;49.124;2023-08-30T11:38:34;1.98;;;1.02;;
78453;SDS011;67750;55.832;49.124;2023-08-30T11:41:04;2.47;;;1.12;;
78453;SDS011;67750;55.832;49.124;2023-08-30T11:43:33;1.62;;;1.00;;
78453;SDS011;67750;55.832;49.124;2023-08-30T11:46:03;2.33;;;1.20;;
78453;SDS011;67750;55.832;49.124;2023-08-30T11:48:33;3.55;;;1.70;;
78453;SDS011;67750;55.832;49.124;2023-08-30T11:51:02;4.55;;;1.67;;
78453;SDS011;67750;55.832;49.124;2023-08-30T11:53:32;3.02;;;1.40;;
78453;SDS011;67750;55.832;49.124;2023-08-30T11:56:02;2.67;;;1.30;;
78453;SDS011;67750;55.832;49.124;2023-08-30T11:58:32;3.02;;;1.30;;
78453;SDS011;67750;55.832;49.124;2023-08-30T12:01:02;2.95;;;1.37;;
78453;SDS011;67750;55.832;49.124;2023-08-30T12:03:33;5.05;;;1.70;;
78453;SDS011;67750;55.832;49.124;2023-08-30T12:06:08;2.50;;;1.35;;
78453;SDS011;67750;55.832;49.124;2023-08-30T12:08:34;4.97;;;1.82;;
78453;SDS011;67750;55.832;49.124;2023-08-30T12:11:03;2.83;;;1.30;;
78453;SDS011;67750;55.832;49.124;2023-08-30T12:13:33;2.40;;;1.30;;
78453;SDS011;67750;55.832;49.124;2023-08-30T12:16:03;3.27;;;1.22;;
78453;SDS011;67750;55.832;49.124;2023-08-30T12:18:33;2.58;;;1.50;;
78453;SDS011;67750;55.832;49.124;2023-08-30T12:21:03;3.80;;;1.35;;
78453;SDS011;67750;55.832;49.124;2023-08-30T12:23:33;2.20;;;1.30;;
78453;SDS011;67750;55.832;49.124;2023-08-30T12:26:03;2.98;;;1.60;;
78453;SDS011;67750;55.832;49.124;2023-08-30T12:31:02;3.35;;;1.35;;
78453;SDS011;67750;55.832;49.124;2023-08-30T12:33:32;3.87;;;1.25;;
78453;SDS011;67750;55.832;49.124;2023-08-30T12:36:02;2.72;;;1.10;;
78453;SDS011;67750;55.832;49.124;2023-08-30T12:38:32;3.45;;;1.27;;
78453;SDS011;67750;55.832;49.124;2023-08-30T12:41:02;2.85;;;1.45;;
78453;SDS011;67750;55.832;49.124;2023-08-30T12:43:31;3.05;;;1.05;;
78453;SDS011;67750;55.832;49.124;2023-08-30T12:46:01;2.10;;;1.10;;
78453;SDS011;67750;55.832;49.124;2023-08-30T12:48:31;1.90;;;1.00;;
78453;SDS011;67750;55.832;49.124;2023-08-30T12:51:00;2.08;;;1.00;;
78453;SDS011;67750;55.832;49.124;2023-08-30T12:53:30;1.77;;;0.80;;
78453;SDS011;67750;55.832;49.124;2023-08-30T12:56:00;1.80;;;1.00;;
78453;SDS011;67750;55.832;49.124;2023-08-30T12:58:31;3.20;;;1.32;;
78453;SDS011;67750;55.832;49.124;2023-08-30T13:01:01;3.37;;;1.65;;
78453;SDS011;67750;55.832;49.124;2023-08-30T13:03:31;4.47;;;1.10;;
78453;SDS011;67750;55.832;49.124;2023-08-30T13:06:00;4.03;;;1.20;;
78453;SDS011;67750;55.832;49.124;2023-08-30T13:08:31;2.70;;;1.30;;
78453;SDS011;67750;55.832;49.124;2023-08-30T13:11:00;3.62;;;1.60;;
78453;SDS011;67750;55.832;49.124;2023-08-30T13:13:31;3.08;;;1.50;;
78453;SDS011;67750;55.832;49.124;2023-08-30T13:16:00;3.72;;;1.65;;
78453;SDS011;67750;55.832;49.124;2023-08-30T13:18:30;2.42;;;1.47;;
78453;SDS011;67750;55.832;49.124;2023-08-30T13:21:00;2.75;;;1.50;;
78453;SDS011;67750;55.832;49.124;2023-08-30T13:23:31;4.47;;;1.60;;
78453;SDS011;67750;55.832;49.124;2023-08-30T13:26:00;3.85;;;1.22;;
78453;SDS011;67750;55.832;49.124;2023-08-30T13:28:30;5.65;;;1.37;;
78453;SDS011;67750;55.832;49.124;2023-08-30T13:30:59;2.65;;;1.40;;
78453;SDS011;67750;55.832;49.124;2023-08-30T13:33:29;4.75;;;1.37;;
78453;SDS011;67750;55.832;49.124;2023-08-30T13:35:59;3.40;;;1.30;;
78453;SDS011;67750;55.832;49.124;2023-08-30T13:38:29;4.50;;;1.50;;
78453;SDS011;67750;55.832;49.124;2023-08-30T13:40:59;5.33;;;1.45;;
78453;SDS011;67750;55.832;49.124;2023-08-30T13:43:30;5.67;;;1.30;;
78453;SDS011;67750;55.832;49.124;2023-08-30T13:46:00;6.35;;;1.47;;
78453;SDS011;67750;55.832;49.124;2023-08-30T13:48:29;2.65;;;1.22;;
78453;SDS011;67750;55.832;49.124;2023-08-30T13:50:59;1.90;;;1.07;;
78453;SDS011;67750;55.832;49.124;2023-08-30T13:53:28;3.27;;;1.32;;
78453;SDS011;67750;55.832;49.124;2023-08-30T13:55:58;3.25;;;1.87;;
78453;SDS011;67750;55.832;49.124;2023-08-30T13:58:27;4.45;;;1.72;;
78453;SDS011;67750;55.832;49.124;2023-08-30T14:00:58;4.97;;;1.75;;
78453;SDS011;67750;55.832;49.124;2023-08-30T14:03:28;3.67;;;1.70;;
78453;SDS011;67750;55.832;49.124;2023-08-30T14:05:57;3.42;;;1.65;;
78453;SDS011;67750;55.832;49.124;2023-08-30T14:08:27;5.85;;;1.80;;
78453;SDS011;67750;55.832;49.124;2023-08-30T14:10:56;4.47;;;1.70;;
78453;SDS011;67750;55.832;49.124;2023-08-30T14:13:26;4.40;;;2.05;;
78453;SDS011;67750;55.832;49.124;2023-08-30T14:15:57;4.72;;;2.17;;
78453;SDS011;67750;55.832;49.124;2023-08-30T14:18:26;4.55;;;2.40;;
78453;SDS011;67750;55.832;49.124;2023-08-30T14:20:56;3.67;;;2.20;;
78453;SDS011;67750;55.832;49.124;2023-08-30T14:23:26;5.20;;;2.77;;
78453;SDS011;67750;55.832;49.124;2023-08-30T14:25:57;4.22;;;2.12;;
78453;SDS011;67750;55.832;49.124;2023-08-30T14:28:27;7.25;;;2.20;;
78453;SDS011;67750;55.832;49.124;2023-08-30T14:30:56;5.85;;;1.80;;
78453;SDS011;67750;55.832;49.124;2023-08-30T14:33:26;4.40;;;1.70;;
78453;SDS011;67750;55.832;49.124;2023-08-30T14:35:55;3.95;;;2.00;;
78453;SDS011;67750;55.832;49.124;2023-08-30T14:38:25;5.33;;;1.85;;
78453;SDS011;67750;55.832;49.124;2023-08-30T14:43:44;4.37;;;1.80;;
78453;SDS011;67750;55.832;49.124;2023-08-30T14:46:14;5.67;;;2.80;;
78453;SDS011;67750;55.832;49.124;2023-08-30T14:48:45;5.05;;;2.40;;
78453;SDS011;67750;55.832;49.124;2023-08-30T14:51:15;7.22;;;3.05;;
78453;SDS011;67750;55.832;49.124;2023-08-30T14:53:44;6.20;;;3.40;;
78453;SDS011;67750;55.832;49.124;2023-08-30T14:56:14;6.15;;;3.10;;
78453;SDS011;67750;55.832;49.124;2023-08-30T14:58:45;6.00;;;2.80;;
78453;SDS011;67750;55.832;49.124;2023-08-30T15:01:34;6.85;;;2.50;;
78453;SDS011;67750;55.832;49.124;2023-08-30T15:04:04;6.67;;;2.65;;
78453;SDS011;67750;55.832;49.124;2023-08-30T15:06:33;6.53;;;2.72;;
78453;SDS011;67750;55.832;49.124;2023-08-30T15:09:05;4.85;;;2.85;;
78453;SDS011;67750;55.832;49.124;2023-08-30T15:11:35;5.17;;;3.20;;
78453;SDS011;67750;55.832;49.124;2023-08-30T15:14:04;5.37;;;2.67;;
78453;SDS011;67750;55.832;49.124;2023-08-30T15:16:34;7.70;;;3.00;;
78453;SDS011;67750;55.832;49.124;2023-08-30T15:19:04;11.60;;;3.00;;
78453;SDS011;67750;55.832;49.124;2023-08-30T15:21:34;6.37;;;2.55;;
78453;SDS011;67750;55.832;49.124;2023-08-30T15:24:06;8.03;;;2.70;;
78453;SDS011;67750;55.832;49.124;2023-08-30T15:26:38;3.75;;;2.50;;
78453;SDS011;67750;55.832;49.124;2023-08-30T15:29:08;7.95;;;2.65;;
78453;SDS011;67750;55.832;49.124;2023-08-30T15:31:37;5.15;;;2.50;;
78453;SDS011;67750;55.832;49.124;2023-08-30T15:34:07;4.87;;;2.25;;
78453;SDS011;67750;55.832;49.124;2023-08-30T15:36:36;6.25;;;2.60;;
78453;SDS011;67750;55.832;49.124;2023-08-30T15:39:06;6.08;;;3.17;;
78453;SDS011;67750;55.832;49.124;2023-08-30T15:41:36;5.37;;;3.00;;
78453;SDS011;67750;55.832;49.124;2023-08-30T15:44:05;7.37;;;2.90;;
78453;SDS011;67750;55.832;49.124;2023-08-30T15:46:35;7.05;;;3.10;;
78453;SDS011;67750;55.832;49.124;2023-08-30T15:49:04;6.53;;;3.75;;
78453;SDS011;67750;55.832;49.124;2023-08-30T15:51:34;6.22;;;3.47;;
78453;SDS011;67750;55.832;49.124;2023-08-30T15:54:05;6.28;;;3.47;;